createdAt,value
2019-03-13T00:00:51.325Z,4.80
2019-03-13T00:03:34.584Z,5.00
2019-03-13T00:06:11.544Z,5.00
2019-03-13T00:08:41.690Z,5.00
2019-03-13T00:11:20.474Z,5.00
2019-03-13T00:13:49.591Z,5.00
2019-03-13T00:16:23.880Z,5.10
2019-03-13T00:18:54.107Z,5.20
2019-03-13T00:21:28.748Z,5.10
2019-03-13T00:24:09.948Z,5.20
2019-03-13T00:26:46.874Z,5.20
2019-03-13T00:29:16.961Z,5.20
2019-03-13T00:31:54.336Z,5.10
2019-03-13T00:34:32.383Z,5.00
2019-03-13T00:37:02.126Z,5.00
2019-03-13T00:39:37.156Z,5.10
2019-03-13T00:42:11.646Z,5.00
2019-03-13T00:44:41.807Z,5.00
2019-03-13T00:47:16.735Z,5.00
2019-03-13T00:50:02.033Z,5.00
2019-03-13T00:52:28.364Z,4.90
2019-03-13T00:55:02.835Z,4.90
2019-03-13T00:57:46.805Z,4.90
2019-03-13T01:00:15.563Z,4.90
2019-03-13T01:03:09.368Z,5.00
2019-03-13T01:06:02.057Z,5.00
2019-03-13T01:08:30.223Z,4.90
2019-03-13T01:11:10.508Z,4.90
2019-03-13T01:13:43.167Z,5.00
2019-03-13T01:16:13.219Z,5.00
2019-03-13T01:18:46.615Z,5.00
2019-03-13T01:21:27.955Z,5.00
2019-03-13T01:24:09.327Z,5.10
2019-03-13T01:26:44.939Z,5.10
2019-03-13T01:29:17.034Z,5.20
2019-03-13T01:32:27.199Z,5.10
2019-03-13T01:35:55.134Z,5.30
2019-03-13T01:38:30.888Z,5.30
2019-03-13T01:41:12.437Z,5.40
2019-03-13T01:43:57.685Z,5.40
2019-03-13T01:46:22.911Z,5.40
2019-03-13T01:48:52.806Z,5.40
2019-03-13T01:51:25.729Z,5.30
2019-03-13T01:54:01.148Z,5.40
2019-03-13T01:56:36.999Z,5.50
2019-03-13T01:59:42.558Z,5.40
2019-03-13T02:01:42.206Z,5.40
2019-03-13T02:04:12.579Z,5.40
2019-03-13T02:06:48.085Z,5.40
2019-03-13T02:09:52.601Z,5.50
2019-03-13T02:11:59.850Z,5.50
2019-03-13T02:14:29.811Z,5.50
2019-03-13T02:17:03.108Z,5.60
2019-03-13T02:19:44.592Z,5.70
2019-03-13T02:22:31.657Z,5.70
2019-03-13T02:24:53.947Z,5.80
2019-03-13T02:27:25.159Z,5.80
2019-03-13T02:30:03.760Z,5.70
2019-03-13T02:32:36.448Z,5.80
2019-03-13T02:35:17.979Z,5.90
2019-03-13T02:37:58.088Z,5.90
2019-03-13T02:40:42.027Z,5.90
2019-03-13T02:43:19.435Z,5.90
2019-03-13T02:46:14.902Z,5.90
2019-03-13T02:48:34.298Z,5.90
2019-03-13T02:51:12.286Z,5.90
2019-03-13T02:53:45.297Z,5.90
2019-03-13T02:56:19.551Z,6.00
2019-03-13T02:58:58.926Z,6.00
2019-03-13T03:01:46.658Z,6.10
2019-03-13T03:04:30.116Z,6.00
2019-03-13T03:07:13.331Z,6.00
2019-03-13T03:09:50.489Z,6.00
2019-03-13T03:12:17.864Z,6.10
2019-03-13T03:15:04.894Z,6.10
2019-03-13T03:17:39.161Z,6.00
2019-03-13T03:20:14.566Z,6.00
2019-03-13T03:22:46.239Z,6.00
2019-03-13T03:25:24.359Z,6.10
2019-03-13T03:27:54.349Z,6.10
2019-03-13T03:30:27.340Z,6.10
2019-03-13T03:32:59.795Z,6.10
2019-03-13T03:35:29.248Z,6.20
2019-03-13T03:38:07.596Z,6.20
2019-03-13T03:40:46.698Z,6.10
2019-03-13T03:43:39.472Z,6.10
2019-03-13T03:46:01.309Z,6.10
2019-03-13T03:48:32.884Z,6.10
2019-03-13T03:51:05.752Z,6.00
2019-03-13T03:53:41.465Z,6.00
2019-03-13T03:56:27.034Z,5.90
2019-03-13T03:58:43.201Z,5.90
2019-03-13T04:01:25.243Z,5.80
2019-03-13T04:03:50.843Z,5.80
2019-03-13T04:06:24.251Z,5.80
2019-03-13T04:09:05.642Z,5.90
2019-03-13T04:11:39.345Z,5.90
2019-03-13T04:14:20.423Z,5.90
2019-03-13T04:16:50.634Z,5.90
2019-03-13T04:19:23.435Z,5.80
2019-03-13T04:21:53.230Z,5.80
2019-03-13T04:24:27.140Z,5.90
2019-03-13T04:27:05.637Z,5.90
2019-03-13T04:29:46.120Z,5.90
2019-03-13T04:32:10.935Z,5.90
2019-03-13T04:34:47.112Z,5.90
2019-03-13T04:37:20.270Z,5.90
2019-03-13T04:39:53.243Z,6.00
2019-03-13T04:42:39.905Z,6.00
2019-03-13T04:45:08.949Z,6.00
2019-03-13T04:47:37.233Z,6.20
2019-03-13T04:50:12.384Z,6.20
2019-03-13T04:52:54.936Z,6.30
2019-03-13T04:55:38.219Z,6.30
2019-03-13T04:58:08.731Z,6.30
2019-03-13T05:00:40.334Z,6.30
2019-03-13T05:03:15.579Z,6.20
2019-03-13T05:05:47.074Z,6.20
2019-03-13T05:08:46.348Z,6.10
2019-03-13T05:11:26.673Z,6.20
2019-03-13T05:13:56.659Z,6.20
2019-03-13T05:16:30.190Z,6.10
2019-03-13T05:19:06.416Z,6.20
2019-03-13T05:21:42.691Z,6.20
2019-03-13T05:24:12.779Z,6.40
2019-03-13T05:26:48.070Z,6.50
2019-03-13T05:29:26.868Z,6.40
2019-03-13T05:31:58.240Z,6.30
2019-03-13T05:34:38.698Z,6.30
2019-03-13T05:37:15.675Z,6.40
2019-03-13T05:39:56.046Z,6.40
2019-03-13T05:42:26.156Z,6.30
2019-03-13T05:44:56.114Z,6.20
2019-03-13T05:47:37.149Z,6.10
2019-03-13T05:50:08.697Z,6.00
2019-03-13T05:52:40.448Z,6.00
2019-03-13T05:55:19.086Z,6.20
2019-03-13T05:58:03.936Z,6.10
2019-03-13T06:00:26.357Z,5.90
2019-03-13T06:03:07.365Z,5.90
2019-03-13T06:05:46.693Z,6.00
2019-03-13T06:08:20.805Z,6.00
2019-03-13T06:10:54.175Z,6.10
2019-03-13T06:13:25.738Z,6.10
2019-03-13T06:15:55.566Z,6.10
2019-03-13T06:18:26.867Z,6.10
2019-03-13T06:21:08.556Z,6.10
2019-03-13T06:23:48.095Z,6.10
2019-03-13T06:26:26.064Z,6.10
2019-03-13T06:28:55.866Z,6.00
2019-03-13T06:31:27.216Z,6.10
2019-03-13T06:33:58.891Z,6.20
2019-03-13T06:36:30.166Z,6.10
2019-03-13T06:39:07.655Z,6.20
2019-03-13T06:41:37.528Z,6.20
2019-03-13T06:44:12.744Z,6.20
2019-03-13T06:46:54.883Z,6.00
2019-03-13T06:49:32.253Z,6.10
2019-03-13T06:52:13.018Z,6.20
2019-03-13T06:54:42.717Z,6.20
2019-03-13T06:57:17.674Z,6.30
2019-03-13T07:00:26.611Z,6.30
2019-03-13T07:03:43.590Z,6.30
2019-03-13T07:06:32.185Z,6.40
2019-03-13T07:09:17.392Z,6.30
2019-03-13T07:12:12.161Z,6.30
2019-03-13T07:15:05.287Z,6.40
2019-03-13T07:18:06.743Z,6.60
2019-03-13T07:21:08.311Z,6.60
2019-03-13T07:23:57.040Z,6.60
2019-03-13T07:26:44.823Z,6.60
2019-03-13T07:29:41.365Z,6.70
2019-03-13T07:32:31.470Z,6.70
2019-03-13T07:35:18.437Z,6.60
2019-03-13T07:38:09.845Z,6.70
2019-03-13T07:41:01.368Z,6.90
2019-03-13T07:43:55.372Z,7.10
2019-03-13T07:46:35.417Z,7.10
2019-03-13T07:49:35.065Z,7.10
2019-03-13T07:52:27.322Z,7.20
2019-03-13T07:55:32.100Z,7.20
2019-03-13T07:58:26.488Z,7.10
2019-03-13T08:01:16.533Z,7.30
2019-03-13T08:04:13.965Z,7.50
2019-03-13T08:07:23.305Z,7.70
2019-03-13T08:10:12.881Z,7.70
2019-03-13T08:13:13.671Z,8.00
2019-03-13T08:16:01.725Z,7.70
2019-03-13T08:18:54.358Z,7.60
2019-03-13T08:21:34.354Z,7.80
2019-03-13T08:24:22.861Z,8.30
2019-03-13T08:27:28.739Z,8.10
2019-03-13T08:30:38.207Z,8.00
2019-03-13T08:33:39.631Z,8.00
2019-03-13T08:36:32.870Z,7.90
2019-03-13T08:39:19.107Z,8.00
2019-03-13T08:42:09.476Z,8.00
2019-03-13T08:45:07.073Z,8.00
2019-03-13T08:47:53.249Z,8.00
2019-03-13T08:50:40.560Z,8.00
2019-03-13T08:53:35.824Z,8.00
2019-03-13T08:56:34.689Z,8.10
2019-03-13T08:59:38.399Z,8.10
2019-03-13T09:02:21.248Z,8.20
2019-03-13T09:05:14.983Z,8.30
2019-03-13T09:08:12.776Z,8.30
2019-03-13T09:11:00.011Z,8.30
2019-03-13T09:13:49.000Z,8.40
2019-03-13T09:16:35.895Z,8.60
2019-03-13T09:19:34.299Z,8.60
2019-03-13T09:22:23.377Z,8.80
2019-03-13T09:25:18.103Z,8.60
2019-03-13T09:28:18.359Z,9.00
2019-03-13T09:31:06.579Z,9.10
2019-03-13T09:33:47.564Z,8.90
2019-03-13T09:36:27.682Z,8.80
2019-03-13T09:39:05.736Z,9.00
2019-03-13T09:41:55.702Z,9.10
2019-03-13T09:44:41.678Z,9.30
2019-03-13T09:47:38.301Z,9.40
2019-03-13T09:50:33.457Z,9.30
2019-03-13T09:53:37.686Z,9.30
2019-03-13T09:56:25.367Z,9.20
2019-03-13T09:59:15.463Z,9.20
2019-03-13T10:01:54.460Z,9.00
2019-03-13T10:04:37.997Z,9.00
2019-03-13T10:07:19.189Z,8.90
2019-03-13T10:10:15.311Z,9.20
2019-03-13T10:12:54.677Z,9.40
2019-03-13T10:15:46.323Z,9.40
2019-03-13T10:18:37.848Z,9.40
2019-03-13T10:21:24.674Z,9.40
2019-03-13T10:24:23.004Z,9.40
2019-03-13T10:27:12.400Z,9.50
2019-03-13T10:29:49.613Z,9.50
2019-03-13T10:32:56.279Z,9.40
2019-03-13T10:35:38.272Z,9.60
2019-03-13T10:38:38.151Z,10.00
2019-03-13T10:41:16.051Z,10.40
2019-03-13T10:44:10.368Z,10.10
2019-03-13T10:46:56.172Z,10.40
2019-03-13T10:49:38.312Z,10.40
2019-03-13T10:52:34.341Z,10.20
2019-03-13T10:55:30.228Z,10.30
2019-03-13T10:58:32.095Z,10.20
2019-03-13T11:01:08.191Z,10.10
2019-03-13T11:04:14.881Z,10.00
2019-03-13T11:06:57.713Z,10.00
2019-03-13T11:09:36.024Z,10.20
2019-03-13T11:12:21.587Z,10.10
2019-03-13T11:15:04.586Z,10.00
2019-03-13T11:18:20.841Z,10.20
2019-03-13T11:21:27.952Z,10.20
2019-03-13T11:24:09.340Z,10.60
2019-03-13T11:26:51.579Z,10.80
2019-03-13T11:29:39.058Z,11.00
2019-03-13T11:32:42.635Z,11.60
2019-03-13T11:35:50.863Z,10.90
2019-03-13T11:39:04.113Z,10.40
2019-03-13T11:41:53.059Z,10.10
2019-03-13T11:44:36.060Z,10.30
2019-03-13T11:47:25.457Z,10.30
2019-03-13T11:50:04.091Z,10.60
2019-03-13T11:52:53.003Z,10.80
2019-03-13T11:56:01.939Z,10.90
2019-03-13T11:58:29.724Z,10.60
2019-03-13T12:01:44.872Z,10.60
2019-03-13T12:04:11.611Z,10.60
2019-03-13T12:07:06.283Z,10.30
2019-03-13T12:10:06.613Z,10.30
2019-03-13T12:12:51.301Z,10.60
2019-03-13T12:15:42.349Z,10.80
2019-03-13T12:18:25.680Z,11.10
2019-03-13T12:21:12.284Z,11.20
2019-03-13T12:24:08.371Z,11.70
2019-03-13T12:27:04.137Z,11.40
2019-03-13T12:29:59.926Z,11.30
2019-03-13T12:32:53.076Z,11.40
2019-03-13T12:35:58.027Z,11.00
2019-03-13T12:38:48.450Z,10.70
2019-03-13T12:41:38.586Z,10.80
2019-03-13T12:44:37.816Z,10.90
2019-03-13T12:47:29.157Z,10.60
2019-03-13T12:50:38.129Z,10.50
2019-03-13T12:53:37.100Z,10.50
2019-03-13T12:56:21.683Z,10.40
2019-03-13T12:59:10.700Z,10.40
2019-03-13T13:02:09.917Z,10.70
2019-03-13T13:04:51.299Z,10.70
2019-03-13T13:07:57.867Z,10.40
2019-03-13T13:10:49.963Z,10.40
2019-03-13T13:13:51.063Z,10.40
2019-03-13T13:16:38.899Z,10.30
2019-03-13T13:19:12.875Z,10.60
2019-03-13T13:21:48.344Z,10.60
2019-03-13T13:24:18.261Z,10.50
2019-03-13T13:27:00.957Z,10.20
2019-03-13T13:30:41.651Z,10.30
2019-03-13T13:32:04.694Z,10.60
2019-03-13T13:34:51.405Z,10.80
2019-03-13T13:37:21.464Z,11.10
2019-03-13T13:39:58.638Z,11.10
2019-03-13T13:42:28.734Z,10.80
2019-03-13T13:45:05.385Z,10.80
2019-03-13T13:47:42.979Z,10.80
2019-03-13T13:50:14.595Z,10.70
2019-03-13T13:52:44.525Z,10.60
2019-03-13T13:55:14.899Z,10.50
2019-03-13T13:57:45.323Z,10.80
2019-03-13T14:00:38.980Z,11.00
2019-03-13T14:03:05.225Z,10.90
2019-03-13T14:05:44.351Z,10.60
2019-03-13T14:08:14.228Z,10.70
2019-03-13T14:10:48.863Z,10.90
2019-03-13T14:13:31.846Z,11.00
2019-03-13T14:16:04.419Z,11.10
2019-03-13T14:18:44.019Z,10.90
2019-03-13T14:21:15.285Z,10.80
2019-03-13T14:23:55.328Z,10.70
2019-03-13T14:26:31.087Z,10.70
2019-03-13T14:28:54.515Z,10.70
2019-03-13T14:31:24.891Z,10.70
2019-03-13T14:33:54.931Z,10.50
2019-03-13T14:36:30.102Z,10.50
2019-03-13T14:38:59.295Z,10.50
2019-03-13T14:41:29.750Z,10.50
2019-03-13T14:44:03.537Z,10.70
2019-03-13T14:46:33.863Z,10.60
2019-03-13T14:49:09.852Z,10.80
2019-03-13T14:51:37.279Z,10.80
2019-03-13T14:54:11.499Z,11.10
2019-03-13T14:56:46.703Z,11.10
2019-03-13T14:59:17.014Z,10.80
2019-03-13T15:01:48.847Z,10.80
2019-03-13T15:04:19.683Z,10.80
2019-03-13T15:06:50.856Z,10.60
2019-03-13T15:09:24.362Z,10.40
2019-03-13T15:11:54.242Z,10.40
2019-03-13T15:14:33.711Z,10.50
2019-03-13T15:17:03.585Z,10.40
2019-03-13T15:19:38.880Z,10.20
2019-03-13T15:22:10.827Z,10.10
2019-03-13T15:24:45.296Z,10.20
2019-03-13T15:27:17.111Z,10.20
2019-03-13T15:29:49.951Z,9.80
2019-03-13T15:32:26.454Z,9.80
2019-03-13T15:35:02.565Z,9.50
2019-03-13T15:37:38.705Z,9.20
2019-03-13T15:40:25.497Z,9.20
2019-03-13T15:42:51.192Z,9.30
2019-03-13T15:45:27.157Z,9.50
2019-03-13T15:47:57.142Z,9.70
2019-03-13T15:50:28.037Z,9.70
2019-03-13T15:53:01.125Z,9.90
2019-03-13T15:55:39.842Z,9.90
2019-03-13T15:58:14.629Z,9.80
2019-03-13T16:00:46.556Z,9.90
2019-03-13T16:03:31.916Z,9.80
2019-03-13T16:05:52.798Z,9.70
2019-03-13T16:08:35.617Z,9.70
2019-03-13T16:11:04.959Z,9.60
2019-03-13T16:13:44.926Z,9.60
2019-03-13T16:16:20.994Z,9.60
2019-03-13T16:18:54.534Z,9.50
2019-03-13T16:21:28.760Z,9.50
2019-03-13T16:24:01.390Z,9.50
2019-03-13T16:26:32.084Z,9.50
2019-03-13T16:29:01.918Z,9.50
2019-03-13T16:31:38.394Z,9.40
2019-03-13T16:34:05.630Z,9.40
2019-03-13T16:36:37.198Z,9.30
2019-03-13T16:39:13.125Z,9.40
2019-03-13T16:41:43.165Z,9.40
2019-03-13T16:44:13.259Z,9.40
2019-03-13T16:46:51.890Z,9.40
2019-03-13T16:49:33.269Z,9.30
2019-03-13T16:52:11.272Z,9.20
2019-03-13T16:54:40.983Z,9.10
2019-03-13T16:57:16.665Z,9.20
2019-03-13T17:00:00.100Z,9.10
2019-03-13T17:02:20.062Z,9.10
2019-03-13T17:04:50.197Z,9.10
2019-03-13T17:07:21.895Z,9.00
2019-03-13T17:09:55.721Z,9.00
2019-03-13T17:12:30.638Z,9.00
2019-03-13T17:15:03.635Z,9.00
2019-03-13T17:17:36.959Z,9.00
2019-03-13T17:20:11.763Z,8.90
2019-03-13T17:22:43.468Z,9.00
2019-03-13T17:25:36.073Z,9.00
2019-03-13T17:28:02.811Z,9.00
2019-03-13T17:30:47.011Z,8.90
2019-03-13T17:33:16.259Z,8.90
2019-03-13T17:35:52.755Z,8.90
2019-03-13T17:38:22.019Z,8.80
2019-03-13T17:40:52.720Z,8.80
2019-03-13T17:43:38.671Z,8.80
2019-03-13T17:45:58.821Z,8.80
2019-03-13T17:48:40.789Z,8.80
2019-03-13T17:51:14.315Z,8.80
2019-03-13T17:53:56.937Z,8.60
2019-03-13T17:56:27.383Z,8.70
2019-03-13T17:58:57.400Z,8.50
2019-03-13T18:01:30.176Z,8.50
2019-03-13T18:04:02.683Z,8.50
2019-03-13T18:06:35.343Z,8.50
2019-03-13T18:09:07.869Z,8.40
2019-03-13T18:12:18.053Z,8.40
2019-03-13T18:14:13.629Z,8.40
2019-03-13T18:16:45.459Z,8.40
2019-03-13T18:19:15.474Z,8.40
2019-03-13T18:21:52.943Z,8.30
2019-03-13T18:24:27.970Z,8.30
2019-03-13T18:26:55.424Z,8.30
2019-03-13T18:29:30.050Z,8.20
2019-03-13T18:34:33.533Z,8.30
2019-03-13T18:37:09.417Z,8.30
2019-03-13T18:39:49.005Z,8.30
2019-03-13T18:42:22.685Z,8.30
2019-03-13T18:44:54.700Z,8.20
2019-03-13T18:47:24.534Z,8.20
2019-03-13T18:49:58.153Z,8.20
2019-03-13T18:52:32.879Z,8.20
2019-03-13T18:55:04.322Z,8.10
2019-03-13T18:58:00.612Z,8.10
2019-03-13T19:00:21.594Z,8.00
2019-03-13T19:02:48.926Z,7.90
2019-03-13T19:05:21.804Z,7.80
2019-03-13T19:08:02.056Z,8.00
2019-03-13T19:10:46.575Z,8.00
2019-03-13T19:13:15.859Z,8.00
2019-03-13T19:15:45.828Z,8.00
2019-03-13T19:18:21.600Z,8.00
2019-03-13T19:20:59.494Z,7.90
2019-03-13T19:23:32.227Z,7.90
2019-03-13T19:26:02.288Z,8.00
2019-03-13T19:28:32.232Z,8.00
2019-03-13T19:31:07.359Z,7.90
2019-03-13T19:33:40.074Z,7.90
2019-03-13T19:36:15.272Z,7.80
2019-03-13T19:39:10.894Z,7.80
2019-03-13T19:41:28.044Z,7.80
2019-03-13T19:43:55.471Z,7.80
2019-03-13T19:46:28.671Z,7.80
2019-03-13T19:49:06.254Z,7.80
2019-03-13T19:51:42.169Z,7.80
2019-03-13T19:54:21.631Z,7.80
2019-03-13T19:56:53.322Z,7.80
2019-03-13T19:59:23.549Z,7.70
2019-03-13T20:01:59.276Z,7.60
2019-03-13T20:04:31.955Z,7.60
2019-03-13T20:07:02.441Z,7.70
2019-03-13T20:09:32.486Z,7.70
2019-03-13T20:12:14.164Z,7.70
2019-03-13T20:14:50.177Z,7.60
2019-03-13T20:17:30.878Z,7.60
2019-03-13T20:20:09.437Z,7.50
2019-03-13T20:22:38.458Z,7.50
2019-03-13T20:25:10.294Z,7.50
2019-03-13T20:27:45.120Z,7.60
2019-03-13T20:30:21.502Z,7.60
2019-03-13T20:32:54.264Z,7.50
2019-03-13T20:35:24.543Z,7.60
2019-03-13T20:37:59.611Z,7.60
2019-03-13T20:40:41.307Z,7.60
2019-03-13T20:43:10.238Z,7.60
2019-03-13T20:45:47.149Z,7.70
2019-03-13T20:48:22.950Z,7.60
2019-03-13T20:50:56.742Z,7.70
2019-03-13T20:53:37.279Z,7.70
2019-03-13T20:55:59.090Z,7.70
2019-03-13T20:58:29.566Z,7.70
2019-03-13T21:01:04.589Z,7.70
2019-03-13T21:03:41.632Z,7.70
2019-03-13T21:06:17.948Z,7.70
2019-03-13T21:08:44.885Z,7.80
2019-03-13T21:11:17.918Z,7.70
2019-03-13T21:13:47.887Z,7.70
2019-03-13T21:16:23.366Z,7.70
2019-03-13T21:18:54.908Z,7.70
2019-03-13T21:21:25.125Z,7.70
2019-03-13T21:23:58.199Z,7.60
2019-03-13T21:26:33.994Z,7.60
2019-03-13T21:29:07.625Z,7.60
2019-03-13T21:31:40.127Z,7.60
2019-03-13T21:34:11.750Z,7.60
2019-03-13T21:36:50.239Z,7.50
2019-03-13T21:39:24.341Z,7.50
2019-03-13T21:41:54.565Z,7.50
2019-03-13T21:44:26.001Z,7.50
2019-03-13T21:47:01.081Z,7.50
2019-03-13T21:49:34.110Z,7.40
2019-03-13T21:52:09.250Z,7.40
2019-03-13T21:54:41.136Z,7.50
2019-03-13T21:57:13.177Z,7.50
2019-03-13T21:59:49.471Z,7.50
2019-03-13T22:02:18.300Z,7.50
2019-03-13T22:04:51.115Z,7.50
2019-03-13T22:07:45.503Z,7.50
2019-03-13T22:10:16.959Z,7.50
2019-03-13T22:12:53.797Z,7.50
2019-03-13T22:15:24.284Z,7.50
2019-03-13T22:17:58.067Z,7.50
2019-03-13T22:20:30.961Z,7.50
2019-03-13T22:23:10.940Z,7.60
2019-03-13T22:25:39.513Z,7.60
2019-03-13T22:28:22.527Z,7.60
2019-03-13T22:30:44.329Z,7.60
2019-03-13T22:33:21.013Z,7.50
2019-03-13T22:35:53.835Z,7.50
2019-03-13T22:38:24.630Z,7.50
2019-03-13T22:40:57.327Z,7.60
2019-03-13T22:43:29.641Z,7.60
2019-03-13T22:46:00.859Z,7.50
2019-03-13T22:48:36.065Z,7.50
2019-03-13T22:51:03.374Z,7.60
2019-03-13T22:53:40.595Z,7.60
2019-03-13T22:56:10.418Z,7.50
2019-03-13T22:58:51.141Z,7.60
2019-03-13T23:01:21.828Z,7.60
2019-03-13T23:03:52.053Z,7.50
2019-03-13T23:06:21.905Z,7.60
2019-03-13T23:08:52.081Z,7.60
2019-03-13T23:11:27.359Z,7.60
2019-03-13T23:14:02.583Z,7.60
2019-03-13T23:16:34.205Z,7.60
2019-03-13T23:19:08.449Z,7.60
2019-03-13T23:21:40.918Z,7.60
2019-03-13T23:24:11.254Z,7.60
2019-03-13T23:26:44.229Z,7.60
2019-03-13T23:29:14.012Z,7.60
2019-03-13T23:31:43.858Z,7.60
2019-03-13T23:34:13.822Z,7.60
2019-03-13T23:36:43.683Z,7.60
2019-03-13T23:39:15.412Z,7.60
2019-03-13T23:41:45.393Z,7.60
2019-03-13T23:44:17.179Z,7.70
2019-03-13T23:46:46.833Z,7.60
2019-03-13T23:49:18.330Z,7.70
2019-03-13T23:51:48.304Z,7.60
2019-03-13T23:54:19.661Z,7.60
2019-03-13T23:56:53.058Z,7.60
2019-03-13T23:59:22.781Z,7.60
